createdAt,value
2023-04-20T00:00:11.637Z,6.62
2023-04-20T00:02:39.832Z,7.20
2023-04-20T00:05:08.065Z,7.00
2023-04-20T00:07:35.829Z,6.62
2023-04-20T00:10:03.930Z,6.27
2023-04-20T00:12:30.871Z,6.57
2023-04-20T00:14:57.876Z,6.00
2023-04-20T00:17:25.244Z,7.05
2023-04-20T00:19:52.208Z,6.78
2023-04-20T00:22:19.414Z,6.33
2023-04-20T00:24:46.965Z,6.62
2023-04-20T00:27:13.865Z,6.57
2023-04-20T00:29:40.773Z,6.18
2023-04-20T00:32:07.972Z,7.25
2023-04-20T00:34:34.985Z,6.40
2023-04-20T00:37:01.958Z,6.62
2023-04-20T00:39:29.016Z,6.45
2023-04-20T00:42:05.244Z,6.53
2023-04-20T00:44:32.505Z,7.07
2023-04-20T00:47:00.163Z,6.97
2023-04-20T00:49:30.146Z,6.32
2023-04-20T00:52:01.019Z,6.95
2023-04-20T00:54:30.046Z,7.28
2023-04-20T00:56:58.190Z,7.53
2023-04-20T00:59:25.476Z,7.50
2023-04-20T01:01:52.749Z,7.28
2023-04-20T01:04:20.541Z,6.93
2023-04-20T01:06:47.538Z,6.75
2023-04-20T01:09:14.955Z,7.00
2023-04-20T01:11:42.084Z,7.43
2023-04-20T01:14:09.568Z,7.10
2023-04-20T01:16:36.742Z,6.82
2023-04-20T01:19:04.285Z,6.82
2023-04-20T01:21:32.122Z,7.32
2023-04-20T01:23:59.627Z,7.27
2023-04-20T01:26:27.304Z,7.12
2023-04-20T01:28:54.450Z,7.30
2023-04-20T01:31:21.447Z,7.12
2023-04-20T01:33:48.972Z,7.20
2023-04-20T01:36:16.215Z,6.80
2023-04-20T01:38:43.324Z,6.70
2023-04-20T01:41:11.087Z,6.72
2023-04-20T01:43:39.428Z,6.75
2023-04-20T01:46:06.895Z,7.20
2023-04-20T01:48:34.600Z,6.80
2023-04-20T01:51:01.681Z,6.37
2023-04-20T01:53:28.607Z,6.75
2023-04-20T01:55:55.801Z,6.97
2023-04-20T01:58:23.400Z,7.85
2023-04-20T02:00:50.730Z,7.13
2023-04-20T02:03:18.058Z,6.90
2023-04-20T02:05:45.105Z,6.80
2023-04-20T02:08:12.032Z,6.78
2023-04-20T02:10:39.101Z,7.22
2023-04-20T02:13:06.284Z,6.87
2023-04-20T02:15:33.212Z,6.82
2023-04-20T02:18:00.306Z,7.15
2023-04-20T02:20:27.545Z,7.35
2023-04-20T02:22:54.764Z,6.12
2023-04-20T02:25:22.049Z,6.90
2023-04-20T02:27:49.659Z,7.28
2023-04-20T02:30:16.718Z,6.87
2023-04-20T02:32:43.827Z,6.70
2023-04-20T02:35:10.820Z,7.05
2023-04-20T02:37:37.780Z,6.30
2023-04-20T02:40:05.853Z,6.65
2023-04-20T02:42:33.005Z,7.12
2023-04-20T02:44:59.938Z,6.68
2023-04-20T02:47:26.867Z,6.45
2023-04-20T02:49:54.091Z,6.47
2023-04-20T02:52:21.027Z,7.10
2023-04-20T02:54:47.877Z,6.20
2023-04-20T02:57:15.021Z,6.10
2023-04-20T02:59:41.916Z,6.60
2023-04-20T03:02:08.923Z,6.03
2023-04-20T03:04:36.874Z,6.15
2023-04-20T03:07:04.958Z,6.60
2023-04-20T03:09:31.938Z,6.55
2023-04-20T03:11:59.382Z,6.20
2023-04-20T03:14:26.448Z,6.10
2023-04-20T03:16:53.405Z,6.32
2023-04-20T03:19:20.798Z,5.90
2023-04-20T03:21:47.827Z,6.35
2023-04-20T03:24:16.683Z,6.22
2023-04-20T03:26:43.482Z,6.23
2023-04-20T03:29:10.519Z,6.28
2023-04-20T03:31:37.688Z,6.05
2023-04-20T03:34:04.603Z,6.40
2023-04-20T03:36:32.548Z,5.82
2023-04-20T03:38:59.814Z,7.03
2023-04-20T03:41:27.178Z,6.75
2023-04-20T03:43:54.326Z,6.72
2023-04-20T03:46:23.231Z,6.07
2023-04-20T03:48:50.948Z,6.10
2023-04-20T03:51:18.114Z,6.13
2023-04-20T03:53:45.012Z,7.32
2023-04-20T03:56:11.965Z,6.47
2023-04-20T03:58:38.942Z,6.65
2023-04-20T04:01:07.787Z,6.65
2023-04-20T04:03:35.579Z,7.20
2023-04-20T04:06:03.913Z,6.87
2023-04-20T04:08:32.309Z,6.35
2023-04-20T04:11:00.748Z,6.90
2023-04-20T04:13:27.849Z,6.32
2023-04-20T04:15:54.774Z,7.13
2023-04-20T04:18:22.167Z,7.12
2023-04-20T04:20:49.315Z,7.07
2023-04-20T04:23:16.449Z,7.53
2023-04-20T04:25:43.462Z,7.35
2023-04-20T04:28:10.760Z,6.60
2023-04-20T04:30:37.645Z,6.85
2023-04-20T04:33:05.186Z,6.37
2023-04-20T04:35:33.435Z,6.93
2023-04-20T04:38:01.059Z,6.60
2023-04-20T04:40:28.102Z,6.97
2023-04-20T04:42:55.726Z,6.53
2023-04-20T04:45:25.362Z,6.53
2023-04-20T04:47:53.976Z,6.62
2023-04-20T04:50:22.172Z,6.75
2023-04-20T04:52:49.120Z,6.70
2023-04-20T04:55:16.690Z,6.95
2023-04-20T04:57:43.736Z,7.43
2023-04-20T05:00:12.567Z,6.90
2023-04-20T05:02:40.345Z,7.65
2023-04-20T05:05:09.996Z,7.67
2023-04-20T05:07:38.615Z,7.12
2023-04-20T05:10:07.217Z,7.28
2023-04-20T05:12:34.305Z,7.45
2023-04-20T05:15:01.144Z,7.47
2023-04-20T05:17:28.172Z,6.80
2023-04-20T05:19:55.329Z,7.12
2023-04-20T05:22:22.325Z,7.20
2023-04-20T05:24:49.325Z,6.53
2023-04-20T05:27:16.258Z,6.55
2023-04-20T05:29:43.291Z,6.60
2023-04-20T05:32:10.216Z,6.60
2023-04-20T05:34:37.145Z,6.55
2023-04-20T05:37:05.592Z,6.45
2023-04-20T05:39:32.633Z,6.75
2023-04-20T05:41:59.738Z,7.13
2023-04-20T05:44:26.886Z,6.78
2023-04-20T05:46:53.859Z,6.57
2023-04-20T05:49:21.347Z,6.50
2023-04-20T05:51:48.580Z,6.65
2023-04-20T05:54:15.725Z,6.80
2023-04-20T05:56:42.618Z,6.00
2023-04-20T05:59:10.343Z,5.97
2023-04-20T06:01:37.662Z,6.40
2023-04-20T06:04:04.949Z,5.43
2023-04-20T06:06:32.784Z,5.63
2023-04-20T06:08:59.574Z,5.50
2023-04-20T06:11:26.656Z,5.40
2023-04-20T06:13:53.603Z,5.55
2023-04-20T06:16:20.691Z,4.75
2023-04-20T06:18:47.832Z,4.57
2023-04-20T06:21:16.135Z,4.22
2023-04-20T06:23:44.653Z,4.22
2023-04-20T06:26:11.737Z,4.30
2023-04-20T06:28:39.188Z,4.47
2023-04-20T06:31:06.495Z,4.43
2023-04-20T06:33:33.555Z,4.47
2023-04-20T06:36:00.450Z,3.97
2023-04-20T06:38:27.377Z,3.87
2023-04-20T06:40:54.502Z,4.10
2023-04-20T06:43:21.379Z,4.13
2023-04-20T06:45:48.304Z,3.47
2023-04-20T06:48:30.988Z,4.35
2023-04-20T06:51:04.971Z,4.20
2023-04-20T06:53:31.869Z,4.07
2023-04-20T06:55:58.884Z,4.20
2023-04-20T06:58:25.918Z,4.57
2023-04-20T07:00:53.000Z,4.05
2023-04-20T07:03:20.129Z,4.12
2023-04-20T07:05:47.306Z,3.90
2023-04-20T07:08:16.015Z,4.00
2023-04-20T07:10:43.318Z,3.95
2023-04-20T07:13:10.618Z,4.22
2023-04-20T07:15:37.707Z,3.72
2023-04-20T07:18:04.880Z,4.00
2023-04-20T07:20:32.355Z,3.83
2023-04-20T07:22:59.386Z,4.00
2023-04-20T07:25:26.395Z,3.92
2023-04-20T07:27:53.513Z,4.00
2023-04-20T07:30:20.679Z,3.97
2023-04-20T07:32:47.627Z,4.07
2023-04-20T07:35:15.547Z,3.72
2023-04-20T07:37:42.491Z,4.10
2023-04-20T07:40:10.362Z,4.00
2023-04-20T07:42:37.537Z,3.62
2023-04-20T07:45:10.038Z,3.53
2023-04-20T07:47:37.672Z,3.60
2023-04-20T07:50:06.768Z,4.10
2023-04-20T07:52:33.923Z,3.30
2023-04-20T07:55:00.865Z,3.65
2023-04-20T07:57:28.980Z,4.00
2023-04-20T07:59:55.979Z,3.10
2023-04-20T08:02:23.194Z,3.62
2023-04-20T08:04:50.502Z,2.87
2023-04-20T08:07:18.062Z,2.95
2023-04-20T08:09:45.042Z,3.53
2023-04-20T08:12:12.581Z,2.65
2023-04-20T08:14:40.578Z,2.75
2023-04-20T08:17:08.000Z,2.65
2023-04-20T08:19:34.968Z,2.90
2023-04-20T08:22:02.291Z,2.90
2023-04-20T08:24:29.886Z,3.25
2023-04-20T08:26:56.860Z,3.40
2023-04-20T08:29:23.829Z,2.78
2023-04-20T08:31:51.895Z,3.70
2023-04-20T08:34:19.950Z,2.70
2023-04-20T08:36:49.597Z,2.83
2023-04-20T08:39:20.717Z,2.60
2023-04-20T08:41:48.233Z,2.50
2023-04-20T08:44:19.107Z,2.90
2023-04-20T08:46:48.052Z,2.60
2023-04-20T08:49:16.633Z,2.53
2023-04-20T08:51:45.223Z,2.80
2023-04-20T08:54:12.906Z,2.10
2023-04-20T08:56:45.759Z,2.53
2023-04-20T08:59:14.590Z,2.30
2023-04-20T09:01:42.824Z,2.45
2023-04-20T09:04:26.960Z,2.40
2023-04-20T09:06:59.901Z,2.28
2023-04-20T09:09:27.434Z,2.22
2023-04-20T09:12:10.381Z,2.50
2023-04-20T09:14:44.814Z,2.20
2023-04-20T09:17:14.721Z,2.05
2023-04-20T09:19:44.776Z,2.05
2023-04-20T09:22:12.174Z,2.25
2023-04-20T09:24:41.265Z,1.90
2023-04-20T09:27:16.542Z,2.22
2023-04-20T09:29:44.474Z,2.22
2023-04-20T09:32:22.938Z,2.53
2023-04-20T09:34:50.036Z,2.30
2023-04-20T09:37:17.872Z,2.60
2023-04-20T09:39:45.750Z,2.10
2023-04-20T09:42:14.558Z,2.22
2023-04-20T09:44:41.531Z,2.47
2023-04-20T09:47:09.779Z,2.10
2023-04-20T09:49:36.942Z,2.30
2023-04-20T09:52:05.151Z,2.35
2023-04-20T09:54:32.261Z,2.20
2023-04-20T09:56:59.917Z,2.12
2023-04-20T09:59:27.747Z,2.20
2023-04-20T10:01:55.310Z,2.60
2023-04-20T10:04:22.772Z,2.35
2023-04-20T10:06:55.377Z,2.62
2023-04-20T10:09:25.997Z,2.35
2023-04-20T10:11:55.665Z,2.50
2023-04-20T10:14:25.616Z,2.50
2023-04-20T10:17:06.755Z,2.08
2023-04-20T10:19:46.003Z,2.10
2023-04-20T10:22:29.206Z,2.50
2023-04-20T10:24:56.499Z,2.28
2023-04-20T10:27:23.679Z,2.37
2023-04-20T10:29:50.585Z,2.37
2023-04-20T10:32:28.692Z,1.90
2023-04-20T10:35:09.951Z,2.42
2023-04-20T10:37:48.894Z,2.58
2023-04-20T10:40:16.035Z,2.40
2023-04-20T10:42:46.302Z,2.33
2023-04-20T10:45:13.589Z,2.10
2023-04-20T10:47:45.468Z,2.12
2023-04-20T10:50:13.962Z,2.20
2023-04-20T10:52:42.921Z,2.03
2023-04-20T10:55:24.501Z,2.55
2023-04-20T10:57:51.943Z,2.20
2023-04-20T11:00:20.978Z,2.50
2023-04-20T11:02:50.572Z,2.12
2023-04-20T11:05:19.085Z,2.37
2023-04-20T11:07:57.438Z,2.37
2023-04-20T11:10:37.428Z,2.33
2023-04-20T11:13:04.837Z,2.28
2023-04-20T11:15:32.866Z,2.10
2023-04-20T11:18:08.002Z,2.30
2023-04-20T11:20:36.621Z,2.60
2023-04-20T11:23:06.065Z,2.20
2023-04-20T11:25:33.136Z,2.45
2023-04-20T11:28:09.791Z,2.10
2023-04-20T11:30:41.483Z,2.23
2023-04-20T11:33:10.009Z,2.17
2023-04-20T11:35:38.593Z,2.50
2023-04-20T11:38:06.008Z,3.62
2023-04-20T11:40:33.177Z,2.45
2023-04-20T11:43:00.719Z,2.20
2023-04-20T11:45:31.194Z,2.10
2023-04-20T11:47:58.277Z,2.22
2023-04-20T11:50:26.191Z,1.98
2023-04-20T11:52:53.193Z,2.20
2023-04-20T11:55:20.925Z,2.23
2023-04-20T11:57:48.242Z,2.40
2023-04-20T12:00:16.124Z,2.60
2023-04-20T12:02:44.031Z,2.40
2023-04-20T12:05:12.099Z,2.78
2023-04-20T12:07:39.569Z,2.50
2023-04-20T12:10:08.339Z,2.58
2023-04-20T12:12:35.856Z,2.55
2023-04-20T12:15:03.176Z,2.35
2023-04-20T12:17:30.329Z,2.78
2023-04-20T12:19:58.238Z,2.27
2023-04-20T12:22:25.359Z,2.50
2023-04-20T12:24:52.620Z,1.80
2023-04-20T12:27:20.450Z,1.90
2023-04-20T12:29:47.518Z,2.30
2023-04-20T12:32:14.850Z,2.67
2023-04-20T12:34:41.966Z,2.60
2023-04-20T12:37:09.205Z,2.50
2023-04-20T12:39:36.338Z,2.33
2023-04-20T12:42:04.064Z,2.35
2023-04-20T12:44:31.370Z,2.13
2023-04-20T12:46:58.394Z,2.45
2023-04-20T12:49:25.478Z,2.37
2023-04-20T12:51:52.702Z,2.40
2023-04-20T12:54:20.395Z,2.20
2023-04-20T12:56:47.625Z,2.00
2023-04-20T12:59:15.617Z,1.80
2023-04-20T13:01:42.777Z,2.75
2023-04-20T13:04:10.145Z,2.50
2023-04-20T13:06:37.139Z,2.08
2023-04-20T13:09:04.468Z,2.03
2023-04-20T13:11:31.539Z,2.03
2023-04-20T13:13:58.649Z,2.30
2023-04-20T13:16:25.881Z,2.60
2023-04-20T13:18:53.436Z,2.80
2023-04-20T13:21:20.569Z,2.23
2023-04-20T13:23:47.915Z,1.83
2023-04-20T13:26:15.058Z,2.35
2023-04-20T13:28:41.957Z,2.47
2023-04-20T13:31:09.226Z,2.40
2023-04-20T13:33:36.348Z,1.93
2023-04-20T13:36:03.451Z,2.20
2023-04-20T13:38:30.404Z,2.00
2023-04-20T13:40:57.324Z,1.87
2023-04-20T13:43:25.705Z,1.90
2023-04-20T13:45:52.924Z,1.70
2023-04-20T13:48:20.115Z,1.58
2023-04-20T13:50:47.699Z,1.52
2023-04-20T13:53:14.778Z,1.95
2023-04-20T13:55:41.984Z,1.70
2023-04-20T13:58:08.897Z,1.50
2023-04-20T14:00:36.044Z,1.40
2023-04-20T14:03:03.501Z,1.55
2023-04-20T14:05:30.655Z,1.52
2023-04-20T14:08:01.899Z,1.67
2023-04-20T14:10:29.612Z,1.70
2023-04-20T14:12:57.477Z,1.52
2023-04-20T14:15:24.671Z,1.73
2023-04-20T14:17:52.909Z,1.50
2023-04-20T14:20:20.003Z,1.58
2023-04-20T14:22:47.456Z,1.83
2023-04-20T14:25:14.501Z,1.65
2023-04-20T14:27:42.281Z,1.45
2023-04-20T14:30:10.076Z,1.73
2023-04-20T14:32:37.366Z,1.65
2023-04-20T14:35:05.919Z,1.37
2023-04-20T14:37:33.349Z,1.70
2023-04-20T14:40:00.377Z,1.77
2023-04-20T14:42:27.761Z,2.12
2023-04-20T14:44:54.815Z,1.33
2023-04-20T14:47:22.419Z,1.63
2023-04-20T14:49:49.826Z,1.35
2023-04-20T14:52:16.964Z,1.73
2023-04-20T14:54:44.595Z,1.80
2023-04-20T14:57:11.618Z,1.60
2023-04-20T14:59:41.378Z,1.50
2023-04-20T15:02:08.479Z,1.60
2023-04-20T15:04:35.792Z,1.60
2023-04-20T15:07:04.037Z,1.62
2023-04-20T15:09:32.778Z,1.60
2023-04-20T15:11:59.747Z,1.50
2023-04-20T15:14:26.894Z,1.60
2023-04-20T15:16:54.280Z,1.58
2023-04-20T15:19:22.970Z,1.42
2023-04-20T15:21:50.922Z,1.77
2023-04-20T15:24:18.372Z,1.53
2023-04-20T15:26:45.946Z,1.42
2023-04-20T15:29:13.026Z,1.35
2023-04-20T15:31:40.597Z,1.20
2023-04-20T15:34:07.674Z,1.30
2023-04-20T15:36:34.812Z,1.30
2023-04-20T15:39:02.443Z,1.30
2023-04-20T15:41:29.482Z,1.60
2023-04-20T15:43:56.484Z,1.40
2023-04-20T15:46:25.851Z,1.55
2023-04-20T15:48:53.226Z,1.53
2023-04-20T15:51:20.591Z,1.30
2023-04-20T15:53:50.723Z,1.60
2023-04-20T15:56:22.815Z,1.70
2023-04-20T15:58:51.076Z,1.85
2023-04-20T16:01:19.781Z,1.60
2023-04-20T16:03:47.808Z,1.87
2023-04-20T16:06:15.502Z,1.30
2023-04-20T16:08:42.535Z,2.00
2023-04-20T16:11:09.836Z,1.90
2023-04-20T16:13:36.965Z,1.70
2023-04-20T16:16:04.801Z,1.42
2023-04-20T16:18:32.994Z,1.48
2023-04-20T16:21:00.023Z,1.30
2023-04-20T16:23:28.375Z,1.40
2023-04-20T16:25:56.049Z,1.30
2023-04-20T16:28:23.054Z,1.25
2023-04-20T16:30:50.053Z,1.25
2023-04-20T16:33:18.239Z,1.25
2023-04-20T16:35:45.152Z,1.02
2023-04-20T16:38:12.600Z,1.20
2023-04-20T16:40:39.813Z,1.30
2023-04-20T16:43:06.889Z,1.40
2023-04-20T16:45:36.213Z,2.75
2023-04-20T16:48:03.308Z,2.50
2023-04-20T16:50:31.866Z,1.07
2023-04-20T16:52:59.368Z,2.08
2023-04-20T16:55:26.424Z,1.58
2023-04-20T16:57:59.886Z,1.40
2023-04-20T17:00:31.441Z,1.67
2023-04-20T17:03:01.467Z,2.20
2023-04-20T17:05:28.589Z,2.30
2023-04-20T17:07:55.443Z,1.98
2023-04-20T17:10:23.123Z,1.67
2023-04-20T17:12:50.723Z,1.77
2023-04-20T17:15:17.694Z,1.80
2023-04-20T17:17:44.678Z,1.95
2023-04-20T17:20:12.474Z,3.25
2023-04-20T17:22:39.901Z,4.40
2023-04-20T17:25:07.957Z,4.50
2023-04-20T17:27:35.007Z,2.90
2023-04-20T17:30:02.548Z,2.50
2023-04-20T17:32:30.344Z,1.80
2023-04-20T17:34:57.853Z,1.77
2023-04-20T17:37:25.273Z,2.15
2023-04-20T17:39:52.480Z,2.30
2023-04-20T17:42:19.592Z,2.37
2023-04-20T17:44:46.940Z,2.40
2023-04-20T17:47:15.058Z,2.33
2023-04-20T17:49:43.697Z,2.10
2023-04-20T17:52:14.963Z,3.30
2023-04-20T17:54:42.054Z,2.53
2023-04-20T17:57:09.470Z,2.08
2023-04-20T17:59:37.311Z,2.08
2023-04-20T18:02:04.622Z,2.22
2023-04-20T18:04:31.870Z,1.60
2023-04-20T18:06:59.568Z,2.22
2023-04-20T18:09:26.860Z,1.65
2023-04-20T18:11:55.068Z,1.50
2023-04-20T18:14:22.442Z,1.70
2023-04-20T18:16:55.067Z,2.03
2023-04-20T18:19:23.006Z,2.00
2023-04-20T18:21:50.185Z,2.42
2023-04-20T18:24:19.439Z,2.70
2023-04-20T18:26:47.428Z,3.00
2023-04-20T18:29:14.550Z,2.40
2023-04-20T18:31:43.024Z,2.35
2023-04-20T18:34:12.108Z,2.78
2023-04-20T18:36:42.405Z,2.65
2023-04-20T18:39:10.794Z,2.60
2023-04-20T18:41:38.679Z,2.60
2023-04-20T18:44:08.190Z,2.50
2023-04-20T18:46:35.953Z,3.17
2023-04-20T18:49:05.128Z,3.10
2023-04-20T18:51:33.133Z,3.00
2023-04-20T18:54:01.283Z,3.17
2023-04-20T18:56:29.017Z,3.47
2023-04-20T18:59:00.586Z,3.70
2023-04-20T19:01:28.007Z,3.22
2023-04-20T19:03:56.722Z,3.20
2023-04-20T19:06:24.823Z,3.60
2023-04-20T19:08:53.821Z,3.50
2023-04-20T19:11:21.846Z,4.00
2023-04-20T19:13:49.347Z,3.83
2023-04-20T19:16:17.482Z,4.00
2023-04-20T19:18:46.754Z,4.17
2023-04-20T19:21:15.260Z,4.00
2023-04-20T19:23:42.571Z,3.92
2023-04-20T19:26:09.975Z,3.85
2023-04-20T19:28:37.484Z,3.80
2023-04-20T19:31:06.225Z,3.93
2023-04-20T19:36:03.457Z,3.62
2023-04-20T19:38:32.088Z,4.07
2023-04-20T19:41:01.485Z,3.60
2023-04-20T19:43:32.458Z,3.27
2023-04-20T19:46:00.433Z,3.83
2023-04-20T19:48:28.392Z,3.90
2023-04-20T19:51:00.335Z,3.40
2023-04-20T19:53:28.128Z,3.20
2023-04-20T19:55:55.672Z,3.20
2023-04-20T19:58:23.808Z,3.40
2023-04-20T20:00:52.527Z,3.72
2023-04-20T20:03:20.388Z,3.83
2023-04-20T20:05:48.369Z,4.50
2023-04-20T20:08:17.518Z,3.90
2023-04-20T20:10:45.345Z,4.30
2023-04-20T20:13:12.767Z,4.28
2023-04-20T20:15:40.121Z,3.70
2023-04-20T20:18:07.790Z,3.65
2023-04-20T20:20:38.188Z,3.10
2023-04-20T20:23:06.191Z,3.17
2023-04-20T20:25:35.062Z,3.47
2023-04-20T20:28:02.670Z,3.35
2023-04-20T20:30:29.934Z,3.30
2023-04-20T20:32:59.216Z,3.40
2023-04-20T20:35:31.543Z,3.40
2023-04-20T20:37:59.482Z,3.40
2023-04-20T20:40:26.745Z,3.67
2023-04-20T20:42:54.516Z,3.90
2023-04-20T20:45:22.051Z,3.60
2023-04-20T20:47:49.211Z,4.00
2023-04-20T20:50:17.010Z,3.70
2023-04-20T20:52:44.238Z,3.95
2023-04-20T20:55:11.553Z,4.28
2023-04-20T20:57:38.552Z,4.30
2023-04-20T21:00:08.536Z,3.60
2023-04-20T21:02:37.126Z,3.78
2023-04-20T21:05:05.358Z,3.45
2023-04-20T21:07:32.299Z,3.47
2023-04-20T21:10:00.022Z,3.13
2023-04-20T21:12:27.094Z,3.10
2023-04-20T21:14:54.479Z,3.45
2023-04-20T21:17:21.524Z,3.40
2023-04-20T21:19:48.531Z,2.90
2023-04-20T21:22:15.771Z,3.20
2023-04-20T21:24:42.844Z,3.33
2023-04-20T21:27:09.967Z,3.50
2023-04-20T21:29:36.918Z,3.42
2023-04-20T21:32:04.230Z,3.30
2023-04-20T21:34:31.319Z,3.33
2023-04-20T21:37:04.268Z,3.70
2023-04-20T21:39:32.441Z,3.30
2023-04-20T21:41:59.898Z,3.50
2023-04-20T21:44:27.214Z,3.20
2023-04-20T21:46:54.315Z,3.60
2023-04-20T21:49:21.385Z,3.30
2023-04-20T21:51:48.472Z,3.45
2023-04-20T21:54:15.616Z,3.12
2023-04-20T21:56:42.478Z,3.30
2023-04-20T21:59:09.428Z,3.33
2023-04-20T22:01:36.460Z,2.90
2023-04-20T22:04:04.692Z,3.35
2023-04-20T22:06:34.673Z,3.65
2023-04-20T22:09:02.425Z,3.35
2023-04-20T22:11:29.708Z,3.07
2023-04-20T22:13:59.360Z,3.17
2023-04-20T22:16:28.639Z,3.05
2023-04-20T22:18:56.148Z,3.47
2023-04-20T22:21:22.975Z,3.40
2023-04-20T22:23:49.876Z,3.10
2023-04-20T22:26:16.921Z,3.10
2023-04-20T22:28:43.819Z,3.28
2023-04-20T22:31:10.765Z,3.35
2023-04-20T22:33:37.754Z,3.37
2023-04-20T22:36:04.978Z,3.23
2023-04-20T22:38:34.511Z,3.17
2023-04-20T22:41:01.750Z,3.30
2023-04-20T22:43:29.120Z,3.08
2023-04-20T22:45:56.658Z,2.90
2023-04-20T22:48:24.149Z,3.07
2023-04-20T22:50:51.311Z,3.53
2023-04-20T22:53:18.176Z,2.90
2023-04-20T22:55:45.080Z,3.20
2023-04-20T22:58:12.330Z,2.87
2023-04-20T23:00:39.220Z,3.37
2023-04-20T23:03:06.604Z,3.08
2023-04-20T23:05:33.853Z,2.87
2023-04-20T23:08:01.246Z,3.10
2023-04-20T23:10:31.108Z,2.78
2023-04-20T23:12:58.045Z,2.70
2023-04-20T23:15:24.957Z,3.15
2023-04-20T23:17:52.600Z,3.17
2023-04-20T23:20:19.705Z,3.20
2023-04-20T23:22:46.759Z,3.05
2023-04-20T23:25:13.677Z,2.57
2023-04-20T23:27:40.738Z,2.95
2023-04-20T23:30:08.785Z,3.40
2023-04-20T23:32:37.197Z,2.60
2023-04-20T23:35:04.503Z,2.87
2023-04-20T23:37:31.384Z,2.90
2023-04-20T23:39:58.361Z,2.70
2023-04-20T23:42:25.264Z,2.85
2023-04-20T23:44:52.301Z,3.33
2023-04-20T23:47:19.223Z,2.80
2023-04-20T23:49:46.462Z,2.97
2023-04-20T23:52:13.400Z,3.10
2023-04-20T23:54:40.305Z,2.87
2023-04-20T23:57:07.280Z,2.55
2023-04-20T23:59:34.527Z,3.10
